Pagrindinis puslapis
METAR-TAF:

METAR-TAF

Oro uostai :

Hamilton, Teksasas, Jungtinės Amerikos Valstijos

platuma: 31-39-57N, ilguma: 098-08-55W, Aukštis: 396 m

Dabartinis oras

Ataskaita buvo paskelbta 17 minutes, ne 07:15 UTC
Vėjas 4 kt iš Pietvakarių
Temperatūra 16°C
Drėgmė 82%
Slėgis 1013 hPa
Matomumas: 16.1 km
Giedras dangus

METAR: KMNZ 270715Z AUTO 22004KT 10SM CLR 16/13 A2992 RMK AO2 T01600131

Laikas: 01:32 (07:32 UTC)


TAF: trūkstamas

Orai ataskaitas ir orų prognozės (METAR, TAF).

turimą stotys yra geltonos ir raudonos taškus žemėlapyje.

Perkelti pele per norėdami pamatyti stoties vardą.

Tada spustelėkite, norėdami matyti oro stebėjimo ir prognozės.

Norėdami pakeisti žemėlapį: spustelėkite ant žalios mygtukų su juodo kryžiaus žemyn,; žalią mygtuką su brūkšneliu, jei norite nutolinti; arba žalių rodyklių gretimoms žemėlapius.


METAR-TAF: